sensor_id;sensor_type;location;lat;lon;timestamp;pressure;altitude;pressure_sealevel;temperature;humidity
49627;BME280;35527;54.616;39.786;2023-04-10T00:00:35;100840.16;;;6.11;51.12
49627;BME280;35527;54.616;39.786;2023-04-10T00:03:39;100840.94;;;6.26;50.77
49627;BME280;35527;54.616;39.786;2023-04-10T00:06:43;100845.16;;;6.35;50.11
49627;BME280;35527;54.616;39.786;2023-04-10T00:09:47;100840.09;;;6.27;49.94
49627;BME280;35527;54.616;39.786;2023-04-10T00:12:51;100849.53;;;6.19;50.16
49627;BME280;35527;54.616;39.786;2023-04-10T00:15:57;100847.00;;;6.12;50.74
49627;BME280;35527;54.616;39.786;2023-04-10T00:18:59;100848.72;;;6.11;50.43
49627;BME280;35527;54.616;39.786;2023-04-10T00:22:02;100850.41;;;6.20;50.73
49627;BME280;35527;54.616;39.786;2023-04-10T00:25:05;100847.81;;;6.24;50.15
49627;BME280;35527;54.616;39.786;2023-04-10T00:28:10;100834.09;;;6.27;50.16
49627;BME280;35527;54.616;39.786;2023-04-10T00:31:14;100852.88;;;6.37;49.63
49627;BME280;35527;54.616;39.786;2023-04-10T00:34:18;100845.97;;;6.46;49.78
49627;BME280;35527;54.616;39.786;2023-04-10T00:37:22;100847.66;;;6.49;49.56
49627;BME280;35527;54.616;39.786;2023-04-10T00:40:26;100842.56;;;6.46;49.19
49627;BME280;35527;54.616;39.786;2023-04-10T00:43:31;100848.56;;;6.45;49.67
49627;BME280;35527;54.616;39.786;2023-04-10T00:46:36;100844.25;;;6.48;49.04
49627;BME280;35527;54.616;39.786;2023-04-10T00:49:42;100847.66;;;6.52;48.96
49627;BME280;35527;54.616;39.786;2023-04-10T00:52:47;100845.94;;;6.49;48.79
49627;BME280;35527;54.616;39.786;2023-04-10T00:55:51;100842.56;;;6.47;49.31
49627;BME280;35527;54.616;39.786;2023-04-10T00:58:53;100843.41;;;6.43;49.22
49627;BME280;35527;54.616;39.786;2023-04-10T01:01:56;100835.75;;;6.37;49.56
49627;BME280;35527;54.616;39.786;2023-04-10T01:04:59;100841.75;;;6.36;49.95
49627;BME280;35527;54.616;39.786;2023-04-10T01:11:22;100837.50;;;6.30;50.06
49627;BME280;35527;54.616;39.786;2023-04-10T01:17:45;100835.81;;;6.20;50.71
49627;BME280;35527;54.616;39.786;2023-04-10T01:20:55;100847.84;;;6.21;50.56
49627;BME280;35527;54.616;39.786;2023-04-10T01:24:19;100838.41;;;6.17;50.52
49627;BME280;35527;54.616;39.786;2023-04-10T01:30:51;100842.72;;;6.09;50.65
49627;BME280;35527;54.616;39.786;2023-04-10T01:33:59;100847.06;;;6.04;51.20
49627;BME280;35527;54.616;39.786;2023-04-10T01:37:03;100840.19;;;6.01;51.32
49627;BME280;35527;54.616;39.786;2023-04-10T01:40:10;100850.47;;;6.01;50.88
49627;BME280;35527;54.616;39.786;2023-04-10T01:43:16;100841.03;;;6.03;51.34
49627;BME280;35527;54.616;39.786;2023-04-10T01:46:25;100841.06;;;6.02;51.19
49627;BME280;35527;54.616;39.786;2023-04-10T01:49:31;100839.34;;;5.98;51.49
49627;BME280;35527;54.616;39.786;2023-04-10T01:52:37;100850.50;;;5.87;51.45
49627;BME280;35527;54.616;39.786;2023-04-10T01:55:50;100856.50;;;5.79;51.60
49627;BME280;35527;54.616;39.786;2023-04-10T01:58:57;100859.97;;;5.58;52.35
49627;BME280;35527;54.616;39.786;2023-04-10T02:02:02;100859.13;;;5.40;53.10
49627;BME280;35527;54.616;39.786;2023-04-10T02:05:09;100855.72;;;5.20;53.92
49627;BME280;35527;54.616;39.786;2023-04-10T02:08:30;100856.59;;;5.08;54.68
49627;BME280;35527;54.616;39.786;2023-04-10T02:11:46;100848.03;;;5.00;55.22
49627;BME280;35527;54.616;39.786;2023-04-10T02:14:54;100854.88;;;4.98;55.55
49627;BME280;35527;54.616;39.786;2023-04-10T02:17:58;100841.19;;;4.88;55.48
49627;BME280;35527;54.616;39.786;2023-04-10T02:21:05;100857.44;;;5.00;56.89
49627;BME280;35527;54.616;39.786;2023-04-10T02:24:09;100855.72;;;4.88;57.01
49627;BME280;35527;54.616;39.786;2023-04-10T02:27:13;100852.31;;;4.84;58.23
49627;BME280;35527;54.616;39.786;2023-04-10T02:30:17;100856.56;;;4.70;58.69
49627;BME280;35527;54.616;39.786;2023-04-10T02:33:20;100859.09;;;4.68;59.53
49627;BME280;35527;54.616;39.786;2023-04-10T02:36:25;100855.69;;;4.65;60.73
49627;BME280;35527;54.616;39.786;2023-04-10T02:39:32;100849.69;;;4.60;61.80
49627;BME280;35527;54.616;39.786;2023-04-10T02:42:40;100853.09;;;4.57;62.79
49627;BME280;35527;54.616;39.786;2023-04-10T02:45:45;100853.97;;;4.56;63.58
49627;BME280;35527;54.616;39.786;2023-04-10T02:49:01;100850.53;;;4.54;65.46
49627;BME280;35527;54.616;39.786;2023-04-10T02:52:05;100854.84;;;4.61;66.31
49627;BME280;35527;54.616;39.786;2023-04-10T02:55:09;100859.97;;;4.67;67.24
49627;BME280;35527;54.616;39.786;2023-04-10T02:58:14;100857.44;;;4.75;68.37
49627;BME280;35527;54.616;39.786;2023-04-10T03:01:18;100861.69;;;4.81;69.70
49627;BME280;35527;54.616;39.786;2023-04-10T03:04:22;100865.97;;;4.86;72.34
49627;BME280;35527;54.616;39.786;2023-04-10T03:07:26;100857.41;;;4.89;75.71
49627;BME280;35527;54.616;39.786;2023-04-10T03:10:29;100867.72;;;5.10;79.24
49627;BME280;35527;54.616;39.786;2023-04-10T03:13:32;100871.13;;;5.58;79.43
49627;BME280;35527;54.616;39.786;2023-04-10T03:16:38;100864.81;;;6.53;79.20
49627;BME280;35527;54.616;39.786;2023-04-10T03:19:43;100859.84;;;8.23;73.54
49627;BME280;35527;54.616;39.786;2023-04-10T03:22:46;100864.69;;;9.59;65.85
49627;BME280;35527;54.616;39.786;2023-04-10T03:25:51;100858.97;;;10.72;58.77
49627;BME280;35527;54.616;39.786;2023-04-10T03:29:01;100859.75;;;11.11;56.72
49627;BME280;35527;54.616;39.786;2023-04-10T03:32:03;100862.41;;;10.32;57.17
49627;BME280;35527;54.616;39.786;2023-04-10T03:35:08;100865.72;;;10.77;53.27
49627;BME280;35527;54.616;39.786;2023-04-10T03:38:13;100867.53;;;11.11;50.08
49627;BME280;35527;54.616;39.786;2023-04-10T03:41:18;100866.16;;;11.32;49.33
49627;BME280;35527;54.616;39.786;2023-04-10T03:44:23;100864.34;;;12.01;43.35
49627;BME280;35527;54.616;39.786;2023-04-10T03:47:27;100858.91;;;12.40;41.98
49627;BME280;35527;54.616;39.786;2023-04-10T03:50:34;100863.75;;;12.79;41.45
49627;BME280;35527;54.616;39.786;2023-04-10T03:53:41;100862.06;;;13.33;41.15
49627;BME280;35527;54.616;39.786;2023-04-10T03:56:49;100866.75;;;13.73;40.76
49627;BME280;35527;54.616;39.786;2023-04-10T03:59:51;100872.09;;;13.93;39.81
49627;BME280;35527;54.616;39.786;2023-04-10T04:03:00;100872.72;;;14.00;41.10
49627;BME280;35527;54.616;39.786;2023-04-10T04:06:20;100866.94;;;14.39;40.34
49627;BME280;35527;54.616;39.786;2023-04-10T04:09:55;100877.38;;;14.62;40.80
49627;BME280;35527;54.616;39.786;2023-04-10T04:13:11;100879.31;;;14.34;41.37
49627;BME280;35527;54.616;39.786;2023-04-10T04:16:27;100881.25;;;13.80;41.52
49627;BME280;35527;54.616;39.786;2023-04-10T04:20:09;100875.19;;;14.52;39.33
49627;BME280;35527;54.616;39.786;2023-04-10T04:24:10;100879.59;;;14.03;39.75
49627;BME280;35527;54.616;39.786;2023-04-10T04:27:49;100873.06;;;14.38;39.57
49627;BME280;35527;54.616;39.786;2023-04-10T04:31:29;100875.19;;;14.96;37.84
49627;BME280;35527;54.616;39.786;2023-04-10T04:34:59;100875.53;;;15.51;37.33
49627;BME280;35527;54.616;39.786;2023-04-10T04:38:25;100872.81;;;16.14;35.70
49627;BME280;35527;54.616;39.786;2023-04-10T04:41:57;100873.28;;;16.22;34.65
49627;BME280;35527;54.616;39.786;2023-04-10T04:45:21;100883.50;;;17.72;33.75
49627;BME280;35527;54.616;39.786;2023-04-10T04:48:44;100872.41;;;18.17;32.12
49627;BME280;35527;54.616;39.786;2023-04-10T04:52:15;100870.72;;;18.96;30.75
49627;BME280;35527;54.616;39.786;2023-04-10T04:55:41;100879.63;;;16.92;34.56
49627;BME280;35527;54.616;39.786;2023-04-10T04:58:57;100878.72;;;16.93;34.20
49627;BME280;35527;54.616;39.786;2023-04-10T05:02:24;100872.91;;;17.05;32.38
49627;BME280;35527;54.616;39.786;2023-04-10T05:05:50;100874.88;;;17.87;31.87
49627;BME280;35527;54.616;39.786;2023-04-10T05:09:12;100879.53;;;18.95;30.77
49627;BME280;35527;54.616;39.786;2023-04-10T05:12:35;100875.56;;;18.87;30.33
49627;BME280;35527;54.616;39.786;2023-04-10T05:15:57;100881.25;;;17.99;30.99
49627;BME280;35527;54.616;39.786;2023-04-10T05:19:27;100887.75;;;15.91;34.02
49627;BME280;35527;54.616;39.786;2023-04-10T05:22:47;100897.31;;;15.07;35.79
49627;BME280;35527;54.616;39.786;2023-04-10T05:26:15;100885.50;;;14.77;35.27
49627;BME280;35527;54.616;39.786;2023-04-10T05:29:45;100892.88;;;14.87;35.26
49627;BME280;35527;54.616;39.786;2023-04-10T05:33:09;100891.38;;;17.20;32.20
49627;BME280;35527;54.616;39.786;2023-04-10T05:36:42;100889.69;;;18.37;30.26
49627;BME280;35527;54.616;39.786;2023-04-10T05:40:11;100888.50;;;19.06;29.08
49627;BME280;35527;54.616;39.786;2023-04-10T05:43:45;100884.91;;;20.39;27.99
49627;BME280;35527;54.616;39.786;2023-04-10T05:47:05;100890.09;;;22.63;25.22
49627;BME280;35527;54.616;39.786;2023-04-10T05:50:14;100892.50;;;24.18;23.05
49627;BME280;35527;54.616;39.786;2023-04-10T05:53:30;100898.41;;;24.44;21.80
49627;BME280;35527;54.616;39.786;2023-04-10T05:56:58;100888.97;;;24.95;22.08
49627;BME280;35527;54.616;39.786;2023-04-10T06:00:34;100902.22;;;25.69;20.21
49627;BME280;35527;54.616;39.786;2023-04-10T06:04:01;100893.16;;;26.23;19.30
49627;BME280;35527;54.616;39.786;2023-04-10T06:07:04;100898.31;;;25.22;19.68
49627;BME280;35527;54.616;39.786;2023-04-10T06:10:08;100903.25;;;25.15;20.75
49627;BME280;35527;54.616;39.786;2023-04-10T06:13:13;100899.75;;;25.77;20.10
49627;BME280;35527;54.616;39.786;2023-04-10T06:16:19;100898.81;;;25.57;19.53
49627;BME280;35527;54.616;39.786;2023-04-10T06:19:22;100906.72;;;25.27;18.96
49627;BME280;35527;54.616;39.786;2023-04-10T06:22:25;100907.13;;;25.95;19.43
49627;BME280;35527;54.616;39.786;2023-04-10T06:25:28;100902.06;;;26.13;18.34
49627;BME280;35527;54.616;39.786;2023-04-10T06:28:33;100908.13;;;26.34;18.36
49627;BME280;35527;54.616;39.786;2023-04-10T06:31:38;100897.16;;;26.58;18.33
49627;BME280;35527;54.616;39.786;2023-04-10T06:34:40;100900.56;;;26.29;18.48
49627;BME280;35527;54.616;39.786;2023-04-10T06:37:44;100905.03;;;26.29;18.58
49627;BME280;35527;54.616;39.786;2023-04-10T06:40:47;100908.81;;;25.75;18.90
49627;BME280;35527;54.616;39.786;2023-04-10T06:43:50;100909.47;;;24.93;18.66
49627;BME280;35527;54.616;39.786;2023-04-10T06:46:55;100904.63;;;23.41;20.15
49627;BME280;35527;54.616;39.786;2023-04-10T06:49:58;100908.75;;;23.21;21.02
49627;BME280;35527;54.616;39.786;2023-04-10T06:53:01;100905.72;;;23.38;20.49
49627;BME280;35527;54.616;39.786;2023-04-10T06:56:04;100911.50;;;23.90;20.11
49627;BME280;35527;54.616;39.786;2023-04-10T06:59:07;100915.44;;;24.52;19.55
49627;BME280;35527;54.616;39.786;2023-04-10T07:02:10;100913.00;;;25.14;19.53
49627;BME280;35527;54.616;39.786;2023-04-10T07:05:16;100911.19;;;24.71;19.50
49627;BME280;35527;54.616;39.786;2023-04-10T07:08:18;100904.03;;;24.28;19.77
49627;BME280;35527;54.616;39.786;2023-04-10T07:11:21;100902.56;;;23.33;20.56
49627;BME280;35527;54.616;39.786;2023-04-10T07:14:25;100897.88;;;23.36;20.23
49627;BME280;35527;54.616;39.786;2023-04-10T07:17:28;100904.41;;;23.90;20.16
49627;BME280;35527;54.616;39.786;2023-04-10T07:20:31;100899.06;;;23.21;20.87
49627;BME280;35527;54.616;39.786;2023-04-10T07:23:33;100902.75;;;22.70;21.80
49627;BME280;35527;54.616;39.786;2023-04-10T07:26:37;100893.59;;;24.04;20.87
49627;BME280;35527;54.616;39.786;2023-04-10T07:29:40;100900.88;;;24.57;20.69
49627;BME280;35527;54.616;39.786;2023-04-10T07:32:43;100902.09;;;23.97;21.29
49627;BME280;35527;54.616;39.786;2023-04-10T07:35:46;100894.28;;;24.52;21.07
49627;BME280;35527;54.616;39.786;2023-04-10T07:38:51;100897.16;;;24.60;21.16
49627;BME280;35527;54.616;39.786;2023-04-10T07:41:55;100891.31;;;25.09;19.84
49627;BME280;35527;54.616;39.786;2023-04-10T07:44:58;100896.31;;;23.92;20.59
49627;BME280;35527;54.616;39.786;2023-04-10T07:48:02;100892.75;;;23.93;20.39
49627;BME280;35527;54.616;39.786;2023-04-10T07:51:07;100896.09;;;23.72;20.66
49627;BME280;35527;54.616;39.786;2023-04-10T07:54:11;100882.09;;;23.59;20.31
49627;BME280;35527;54.616;39.786;2023-04-10T07:57:14;100881.03;;;24.40;19.81
49627;BME280;35527;54.616;39.786;2023-04-10T08:00:17;100875.56;;;24.21;19.33
49627;BME280;35527;54.616;39.786;2023-04-10T08:03:22;100872.66;;;23.79;20.54
49627;BME280;35527;54.616;39.786;2023-04-10T08:06:25;100881.06;;;24.18;20.68
49627;BME280;35527;54.616;39.786;2023-04-10T08:09:29;100872.28;;;24.28;19.86
49627;BME280;35527;54.616;39.786;2023-04-10T08:12:34;100877.72;;;24.04;20.10
49627;BME280;35527;54.616;39.786;2023-04-10T08:15:38;100870.38;;;23.86;19.97
49627;BME280;35527;54.616;39.786;2023-04-10T08:18:46;100877.00;;;22.85;21.32
49627;BME280;35527;54.616;39.786;2023-04-10T08:21:48;100868.00;;;23.01;21.12
49627;BME280;35527;54.616;39.786;2023-04-10T08:24:50;100872.06;;;23.40;20.44
49627;BME280;35527;54.616;39.786;2023-04-10T08:27:56;100854.81;;;23.47;20.36
49627;BME280;35527;54.616;39.786;2023-04-10T08:31:04;100869.53;;;23.85;19.83
49627;BME280;35527;54.616;39.786;2023-04-10T08:34:06;100862.53;;;23.61;19.90
49627;BME280;35527;54.616;39.786;2023-04-10T08:37:12;100860.03;;;23.82;20.26
49627;BME280;35527;54.616;39.786;2023-04-10T08:40:19;100859.50;;;23.66;19.63
49627;BME280;35527;54.616;39.786;2023-04-10T08:43:24;100856.47;;;23.48;19.96
49627;BME280;35527;54.616;39.786;2023-04-10T08:46:27;100856.28;;;22.68;20.79
49627;BME280;35527;54.616;39.786;2023-04-10T08:49:40;100844.16;;;22.89;20.64
49627;BME280;35527;54.616;39.786;2023-04-10T08:52:50;100850.84;;;23.06;20.75
49627;BME280;35527;54.616;39.786;2023-04-10T08:55:55;100846.81;;;23.71;19.87
49627;BME280;35527;54.616;39.786;2023-04-10T08:59:01;100843.56;;;23.10;20.23
49627;BME280;35527;54.616;39.786;2023-04-10T09:02:05;100848.06;;;22.97;20.14
49627;BME280;35527;54.616;39.786;2023-04-10T09:05:12;100845.41;;;22.97;20.39
49627;BME280;35527;54.616;39.786;2023-04-10T09:08:17;100834.78;;;22.85;20.41
49627;BME280;35527;54.616;39.786;2023-04-10T09:11:20;100834.56;;;24.15;19.36
49627;BME280;35527;54.616;39.786;2023-04-10T09:14:25;100842.38;;;25.46;18.11
49627;BME280;35527;54.616;39.786;2023-04-10T09:17:28;100839.47;;;25.07;18.69
49627;BME280;35527;54.616;39.786;2023-04-10T09:20:32;100835.75;;;24.00;19.50
49627;BME280;35527;54.616;39.786;2023-04-10T09:23:35;100834.31;;;24.07;19.06
49627;BME280;35527;54.616;39.786;2023-04-10T09:26:39;100832.03;;;23.80;18.84
49627;BME280;35527;54.616;39.786;2023-04-10T09:29:45;100833.78;;;22.75;19.47
49627;BME280;35527;54.616;39.786;2023-04-10T09:32:53;100831.13;;;23.46;19.16
49627;BME280;35527;54.616;39.786;2023-04-10T09:35:59;100818.69;;;23.81;18.48
49627;BME280;35527;54.616;39.786;2023-04-10T09:39:04;100826.53;;;22.42;20.63
49627;BME280;35527;54.616;39.786;2023-04-10T09:42:09;100827.28;;;20.90;21.56
49627;BME280;35527;54.616;39.786;2023-04-10T09:45:15;100841.09;;;21.59;21.05
49627;BME280;35527;54.616;39.786;2023-04-10T09:48:22;100835.84;;;21.47;20.56
49627;BME280;35527;54.616;39.786;2023-04-10T09:51:31;100822.44;;;22.38;20.22
49627;BME280;35527;54.616;39.786;2023-04-10T09:54:37;100828.50;;;22.75;20.05
49627;BME280;35527;54.616;39.786;2023-04-10T09:57:43;100818.44;;;22.80;19.74
49627;BME280;35527;54.616;39.786;2023-04-10T10:00:48;100824.13;;;22.87;19.72
49627;BME280;35527;54.616;39.786;2023-04-10T10:03:55;100817.56;;;21.95;20.12
49627;BME280;35527;54.616;39.786;2023-04-10T10:07:04;100806.78;;;22.23;20.92
49627;BME280;35527;54.616;39.786;2023-04-10T10:10:07;100817.06;;;21.39;20.93
49627;BME280;35527;54.616;39.786;2023-04-10T10:13:18;100809.06;;;21.00;21.59
49627;BME280;35527;54.616;39.786;2023-04-10T10:16:28;100812.63;;;21.77;21.26
49627;BME280;35527;54.616;39.786;2023-04-10T10:20:19;100818.19;;;21.22;21.54
49627;BME280;35527;54.616;39.786;2023-04-10T10:22:57;100813.16;;;20.79;21.94
49627;BME280;35527;54.616;39.786;2023-04-10T10:26:00;100812.03;;;20.41;22.41
49627;BME280;35527;54.616;39.786;2023-04-10T10:29:05;100809.91;;;20.88;22.10
49627;BME280;35527;54.616;39.786;2023-04-10T10:32:11;100802.00;;;20.34;22.36
49627;BME280;35527;54.616;39.786;2023-04-10T10:35:16;100799.53;;;20.03;22.73
49627;BME280;35527;54.616;39.786;2023-04-10T10:38:19;100807.91;;;19.96;23.23
49627;BME280;35527;54.616;39.786;2023-04-10T10:41:25;100798.78;;;20.01;23.15
49627;BME280;35527;54.616;39.786;2023-04-10T10:47:43;100794.75;;;19.96;23.73
49627;BME280;35527;54.616;39.786;2023-04-10T10:50:50;100800.19;;;19.64;23.16
49627;BME280;35527;54.616;39.786;2023-04-10T10:53:55;100802.28;;;19.88;22.78
49627;BME280;35527;54.616;39.786;2023-04-10T10:57:02;100799.44;;;20.05;22.29
49627;BME280;35527;54.616;39.786;2023-04-10T11:00:14;100793.19;;;20.35;22.74
49627;BME280;35527;54.616;39.786;2023-04-10T11:09:52;100785.03;;;18.64;24.29
49627;BME280;35527;54.616;39.786;2023-04-10T11:13:15;100789.88;;;18.72;24.75
49627;BME280;35527;54.616;39.786;2023-04-10T11:23:18;100782.19;;;18.99;24.32
49627;BME280;35527;54.616;39.786;2023-04-10T11:29:37;100773.28;;;19.46;24.03
49627;BME280;35527;54.616;39.786;2023-04-10T11:32:40;100770.88;;;19.72;23.94
49627;BME280;35527;54.616;39.786;2023-04-10T11:35:44;100779.19;;;19.05;24.22
49627;BME280;35527;54.616;39.786;2023-04-10T11:38:56;100769.91;;;18.69;24.34
49627;BME280;35527;54.616;39.786;2023-04-10T11:42:00;100776.03;;;18.38;25.14
49627;BME280;35527;54.616;39.786;2023-04-10T11:45:25;100767.59;;;18.33;24.99
49627;BME280;35527;54.616;39.786;2023-04-10T11:48:29;100765.75;;;18.65;25.10
49627;BME280;35527;54.616;39.786;2023-04-10T11:51:34;100759.19;;;18.88;24.94
49627;BME280;35527;54.616;39.786;2023-04-10T11:54:39;100754.94;;;18.72;25.05
49627;BME280;35527;54.616;39.786;2023-04-10T11:57:51;100746.09;;;18.42;25.26
49627;BME280;35527;54.616;39.786;2023-04-10T12:00:57;100753.53;;;18.50;24.96
49627;BME280;35527;54.616;39.786;2023-04-10T12:04:00;100742.59;;;18.58;25.07
49627;BME280;35527;54.616;39.786;2023-04-10T12:07:08;100741.44;;;18.48;25.03
49627;BME280;35527;54.616;39.786;2023-04-10T12:10:15;100745.28;;;18.26;25.20
49627;BME280;35527;54.616;39.786;2023-04-10T12:13:24;100738.09;;;18.76;24.65
49627;BME280;35527;54.616;39.786;2023-04-10T12:16:28;100731.31;;;17.94;25.48
49627;BME280;35527;54.616;39.786;2023-04-10T12:19:32;100727.31;;;17.71;25.81
49627;BME280;35527;54.616;39.786;2023-04-10T12:22:36;100726.56;;;17.69;26.26
49627;BME280;35527;54.616;39.786;2023-04-10T12:25:39;100719.19;;;17.60;26.07
49627;BME280;35527;54.616;39.786;2023-04-10T12:28:51;100718.63;;;17.54;26.34
49627;BME280;35527;54.616;39.786;2023-04-10T12:31:55;100714.06;;;17.58;26.11
49627;BME280;35527;54.616;39.786;2023-04-10T12:34:59;100717.09;;;17.17;27.15
49627;BME280;35527;54.616;39.786;2023-04-10T12:38:02;100715.94;;;17.23;26.86
49627;BME280;35527;54.616;39.786;2023-04-10T12:41:06;100714.34;;;17.03;26.72
49627;BME280;35527;54.616;39.786;2023-04-10T12:44:12;100708.41;;;16.99;27.16
49627;BME280;35527;54.616;39.786;2023-04-10T12:47:17;100708.69;;;16.76;27.27
49627;BME280;35527;54.616;39.786;2023-04-10T12:50:20;100703.66;;;16.90;26.90
49627;BME280;35527;54.616;39.786;2023-04-10T12:53:25;100710.78;;;16.69;26.81
49627;BME280;35527;54.616;39.786;2023-04-10T12:56:39;100699.25;;;16.73;27.04
49627;BME280;35527;54.616;39.786;2023-04-10T12:59:41;100702.09;;;16.69;27.30
49627;BME280;35527;54.616;39.786;2023-04-10T13:02:47;100696.28;;;16.81;27.63
49627;BME280;35527;54.616;39.786;2023-04-10T13:05:53;100690.50;;;17.09;27.15
49627;BME280;35527;54.616;39.786;2023-04-10T13:08:56;100685.97;;;16.95;27.47
49627;BME280;35527;54.616;39.786;2023-04-10T13:11:59;100691.22;;;16.78;26.65
49627;BME280;35527;54.616;39.786;2023-04-10T13:15:02;100693.34;;;16.52;27.91
49627;BME280;35527;54.616;39.786;2023-04-10T13:18:05;100694.16;;;16.35;27.78
49627;BME280;35527;54.616;39.786;2023-04-10T13:21:16;100682.09;;;16.33;27.84
49627;BME280;35527;54.616;39.786;2023-04-10T13:24:25;100680.78;;;16.24;27.46
49627;BME280;35527;54.616;39.786;2023-04-10T13:27:29;100678.94;;;16.26;27.91
49627;BME280;35527;54.616;39.786;2023-04-10T13:30:37;100680.16;;;16.36;27.98
49627;BME280;35527;54.616;39.786;2023-04-10T13:33:44;100676.25;;;16.45;28.35
49627;BME280;35527;54.616;39.786;2023-04-10T13:36:51;100675.06;;;16.16;27.84
49627;BME280;35527;54.616;39.786;2023-04-10T13:39:55;100677.31;;;15.87;28.44
49627;BME280;35527;54.616;39.786;2023-04-10T13:42:58;100674.00;;;15.84;28.61
49627;BME280;35527;54.616;39.786;2023-04-10T13:46:04;100672.72;;;15.92;28.61
49627;BME280;35527;54.616;39.786;2023-04-10T13:49:07;100661.50;;;15.90;28.60
49627;BME280;35527;54.616;39.786;2023-04-10T13:52:09;100658.88;;;15.90;28.53
49627;BME280;35527;54.616;39.786;2023-04-10T13:55:12;100669.88;;;15.59;28.91
49627;BME280;35527;54.616;39.786;2023-04-10T13:58:17;100661.84;;;15.45;29.05
49627;BME280;35527;54.616;39.786;2023-04-10T14:01:20;100668.63;;;15.49;29.02
49627;BME280;35527;54.616;39.786;2023-04-10T14:04:24;100665.56;;;15.39;29.77
49627;BME280;35527;54.616;39.786;2023-04-10T14:07:29;100663.91;;;15.38;29.64
49627;BME280;35527;54.616;39.786;2023-04-10T14:10:33;100654.78;;;15.28;28.54
49627;BME280;35527;54.616;39.786;2023-04-10T14:13:38;100661.34;;;15.18;29.03
49627;BME280;35527;54.616;39.786;2023-04-10T14:16:42;100657.66;;;15.22;28.54
49627;BME280;35527;54.616;39.786;2023-04-10T14:19:46;100648.44;;;15.33;28.44
49627;BME280;35527;54.616;39.786;2023-04-10T14:22:52;100652.97;;;15.30;28.93
49627;BME280;35527;54.616;39.786;2023-04-10T14:25:57;100646.66;;;15.15;28.51
49627;BME280;35527;54.616;39.786;2023-04-10T14:29:02;100647.31;;;15.20;29.43
49627;BME280;35527;54.616;39.786;2023-04-10T14:32:05;100640.63;;;15.15;29.39
49627;BME280;35527;54.616;39.786;2023-04-10T14:35:09;100649.31;;;14.95;28.91
49627;BME280;35527;54.616;39.786;2023-04-10T14:38:13;100644.66;;;14.82;29.86
49627;BME280;35527;54.616;39.786;2023-04-10T14:41:17;100645.53;;;14.81;29.97
49627;BME280;35527;54.616;39.786;2023-04-10T14:44:25;100649.47;;;14.71;30.69
49627;BME280;35527;54.616;39.786;2023-04-10T14:47:31;100648.25;;;14.59;31.24
49627;BME280;35527;54.616;39.786;2023-04-10T14:50:34;100644.00;;;14.57;31.15
49627;BME280;35527;54.616;39.786;2023-04-10T14:53:36;100645.38;;;14.43;30.81
49627;BME280;35527;54.616;39.786;2023-04-10T14:56:41;100648.16;;;14.39;30.42
49627;BME280;35527;54.616;39.786;2023-04-10T14:59:45;100645.94;;;14.30;30.81
49627;BME280;35527;54.616;39.786;2023-04-10T15:02:49;100645.91;;;14.31;31.52
49627;BME280;35527;54.616;39.786;2023-04-10T15:05:58;100642.69;;;14.25;31.45
49627;BME280;35527;54.616;39.786;2023-04-10T15:09:03;100643.47;;;14.27;31.12
49627;BME280;35527;54.616;39.786;2023-04-10T15:12:06;100641.25;;;14.17;31.22
49627;BME280;35527;54.616;39.786;2023-04-10T15:15:09;100642.72;;;14.03;31.23
49627;BME280;35527;54.616;39.786;2023-04-10T15:18:14;100639.63;;;13.93;31.42
49627;BME280;35527;54.616;39.786;2023-04-10T15:21:17;100643.38;;;13.86;31.96
49627;BME280;35527;54.616;39.786;2023-04-10T15:24:20;100633.47;;;13.73;31.70
49627;BME280;35527;54.616;39.786;2023-04-10T15:27:24;100628.84;;;13.58;31.74
49627;BME280;35527;54.616;39.786;2023-04-10T15:30:29;100636.75;;;13.55;31.64
49627;BME280;35527;54.616;39.786;2023-04-10T15:33:33;100630.28;;;13.43;32.09
49627;BME280;35527;54.616;39.786;2023-04-10T15:36:43;100630.75;;;13.31;32.41
49627;BME280;35527;54.616;39.786;2023-04-10T15:39:48;100630.13;;;13.23;32.36
49627;BME280;35527;54.616;39.786;2023-04-10T15:42:52;100635.38;;;13.21;32.63
49627;BME280;35527;54.616;39.786;2023-04-10T15:45:57;100635.59;;;13.15;32.72
49627;BME280;35527;54.616;39.786;2023-04-10T15:49:03;100636.78;;;13.06;32.94
49627;BME280;35527;54.616;39.786;2023-04-10T15:52:08;100626.72;;;12.97;33.13
49627;BME280;35527;54.616;39.786;2023-04-10T15:55:12;100633.91;;;12.91;33.32
49627;BME280;35527;54.616;39.786;2023-04-10T15:58:18;100628.88;;;12.86;33.28
49627;BME280;35527;54.616;39.786;2023-04-10T16:01:22;100640.34;;;12.79;32.78
49627;BME280;35527;54.616;39.786;2023-04-10T16:04:25;100634.44;;;12.75;33.23
49627;BME280;35527;54.616;39.786;2023-04-10T16:07:30;100631.91;;;12.74;33.56
49627;BME280;35527;54.616;39.786;2023-04-10T16:10:33;100632.97;;;12.68;33.59
49627;BME280;35527;54.616;39.786;2023-04-10T16:13:38;100636.66;;;12.61;33.82
49627;BME280;35527;54.616;39.786;2023-04-10T16:16:45;100636.06;;;12.53;33.70
49627;BME280;35527;54.616;39.786;2023-04-10T16:19:50;100637.13;;;12.47;34.04
49627;BME280;35527;54.616;39.786;2023-04-10T16:22:53;100630.56;;;12.37;33.75
49627;BME280;35527;54.616;39.786;2023-04-10T16:26:01;100629.81;;;12.33;33.79
49627;BME280;35527;54.616;39.786;2023-04-10T16:29:04;100640.28;;;12.30;34.33
49627;BME280;35527;54.616;39.786;2023-04-10T16:32:07;100638.09;;;12.18;34.37
49627;BME280;35527;54.616;39.786;2023-04-10T16:35:12;100640.06;;;12.10;34.70
49627;BME280;35527;54.616;39.786;2023-04-10T16:38:16;100639.31;;;12.06;35.01
49627;BME280;35527;54.616;39.786;2023-04-10T16:41:19;100636.88;;;12.02;35.40